Da Tong Yun — VRJL3 — position and weather

sailwx.info

Track history (hours):
 
Tides and Currents Weather Stations Pressure Air Temp Water Temp Dewpoint Dewpoint Depression Visibility Wind Speed Wind Dir Waves Ship Positions

Da Tong Yun

Last reported at 2017-Dec-02 22:32 UTC. Time now 2017-Dec-13 20:43 UTC.
Position N 31°46' E 121°03'.
Warning: this ship's position is 10 days out of date.

Length 166 m; draft 10.4 m.

Type: Cargo ship. MMSI: 477108600.

Date/timePositionNaut miles runAvg speedWind from/ knotsBaromVisibWave heightAir tempDewpointWater temp
2017-Dec-02 22:32N 31°46' E 121°03'0 7.7
2017-Dec-02 22:31N 31°46' E 121°03'5 8.7
2017-Dec-02 21:55N 31°43' E 121°08'4 8.6
2017-Dec-02 21:30N 31°41' E 121°11'4 8.8
2017-Dec-02 21:00N 31°38' E 121°15'4 8.8
2017-Dec-02 20:30N 31°35' E 121°19'4 8.8
2017-Dec-02 20:00N 31°32' E 121°22'5 9.3
2017-Dec-02 19:30N 31°29' E 121°27'5 8.2
2017-Dec-02 18:57N 31°25' E 121°30'3 7.3
2017-Dec-02 18:30N 31°24' E 121°34'4 7.8
2017-Dec-02 18:00N 31°22' E 121°38'5 8.8
2017-Dec-02 17:27N 31°20' E 121°43'510.3
2017-Dec-02 17:00N 31°18' E 121°48'610.9
2017-Dec-02 16:28N 31°16' E 121°54'711.6
2017-Dec-02 15:51N 31°14' E 122°02'1311.8
2017-Dec-02 14:47N 31°08' E 122°15'311.8
2017-Dec-02 14:30N 31°06' E 122°18'  
2017-Nov-28 20:11N 23°41' E 119°55'213.8
2017-Nov-28 20:00N 23°39' E 119°54'714.3
2017-Nov-28 19:30N 23°32' E 119°53'714.1
2017-Nov-28 19:01N 23°25' E 119°51'713.8
2017-Nov-28 18:30N 23°19' E 119°49'2212.2
2017-Nov-28 16:41N 22°57' E 119°55'212.1
2017-Nov-28 16:30N 22°55' E 119°55'612.0
2017-Nov-28 16:00N 22°49' E 119°54'1211.9
2017-Nov-28 15:00N 22°37' E 119°55'611.7
2017-Nov-28 14:31N 22°31' E 119°55'611.5
2017-Nov-28 13:58N 22°25' E 119°55'611.5
2017-Nov-28 13:25N 22°19' E 119°57'611.9
2017-Nov-28 12:57N 22°14' E 119°59'711.6
2017-Nov-28 12:22N 22°09' E 120°04'410.8
2017-Nov-28 11:58N 22°07' E 120°08'  
Track history (hours):
 
Tides and Currents Weather Stations Pressure Air Temp Water Temp Dewpoint Dewpoint Depression Visibility Wind Speed Wind Dir Waves Ship Positions

Da Tong Yun

Last reported at 2017-Dec-02 22:32 UTC. Time now 2017-Dec-13 20:43 UTC.
Position N 31°46' E 121°03'.
Warning: this ship's position is 10 days out of date.

Length 166 m; draft 10.4 m.

Type: Cargo ship. MMSI: 477108600.

Date/timePositionNaut miles runAvg speedWind from/ knotsBaromVisibWave heightAir tempDewpointWater temp
2017-Dec-02 22:32N 31°46' E 121°03'0 7.7
2017-Dec-02 22:31N 31°46' E 121°03'5 8.7
2017-Dec-02 21:55N 31°43' E 121°08'4 8.6
2017-Dec-02 21:30N 31°41' E 121°11'4 8.8
2017-Dec-02 21:00N 31°38' E 121°15'4 8.8
2017-Dec-02 20:30N 31°35' E 121°19'4 8.8
2017-Dec-02 20:00N 31°32' E 121°22'5 9.3
2017-Dec-02 19:30N 31°29' E 121°27'5 8.2
2017-Dec-02 18:57N 31°25' E 121°30'3 7.3
2017-Dec-02 18:30N 31°24' E 121°34'4 7.8
2017-Dec-02 18:00N 31°22' E 121°38'5 8.8
2017-Dec-02 17:27N 31°20' E 121°43'510.3
2017-Dec-02 17:00N 31°18' E 121°48'610.9
2017-Dec-02 16:28N 31°16' E 121°54'711.6
2017-Dec-02 15:51N 31°14' E 122°02'1311.8
2017-Dec-02 14:47N 31°08' E 122°15'311.8
2017-Dec-02 14:30N 31°06' E 122°18'  
2017-Nov-28 20:11N 23°41' E 119°55'213.8
2017-Nov-28 20:00N 23°39' E 119°54'714.3
2017-Nov-28 19:30N 23°32' E 119°53'714.1
2017-Nov-28 19:01N 23°25' E 119°51'713.8
2017-Nov-28 18:30N 23°19' E 119°49'2212.2
2017-Nov-28 16:41N 22°57' E 119°55'212.1
2017-Nov-28 16:30N 22°55' E 119°55'612.0
2017-Nov-28 16:00N 22°49' E 119°54'1211.9
2017-Nov-28 15:00N 22°37' E 119°55'611.7
2017-Nov-28 14:31N 22°31' E 119°55'611.5
2017-Nov-28 13:58N 22°25' E 119°55'611.5
2017-Nov-28 13:25N 22°19' E 119°57'611.9
2017-Nov-28 12:57N 22°14' E 119°59'711.6
2017-Nov-28 12:22N 22°09' E 120°04'410.8
2017-Nov-28 11:58N 22°07' E 120°08'  

Dump ship's entire track history